sensor_id;sensor_type;location;lat;lon;timestamp;pressure;altitude;pressure_sealevel;temperature;humidity
72612;BME280;60655;52.182;4.474;2023-03-16T00:01:10;101724.84;;;7.86;64.44
72612;BME280;60655;52.182;4.474;2023-03-16T00:03:12;101716.72;;;7.88;65.38
72612;BME280;60655;52.182;4.474;2023-03-16T00:05:20;101709.75;;;7.72;65.82
72612;BME280;60655;52.182;4.474;2023-03-16T00:07:20;101725.91;;;7.77;65.52
72612;BME280;60655;52.182;4.474;2023-03-16T00:09:21;101723.13;;;7.70;65.32
72612;BME280;60655;52.182;4.474;2023-03-16T00:11:30;101728.47;;;7.85;65.98
72612;BME280;60655;52.182;4.474;2023-03-16T00:13:31;101734.28;;;7.80;65.66
72612;BME280;60655;52.182;4.474;2023-03-16T00:15:32;101734.09;;;7.59;64.96
72612;BME280;60655;52.182;4.474;2023-03-16T00:17:33;101721.13;;;7.72;66.10
72612;BME280;60655;52.182;4.474;2023-03-16T00:19:34;101725.25;;;7.75;66.34
72612;BME280;60655;52.182;4.474;2023-03-16T00:21:35;101725.78;;;7.93;67.43
72612;BME280;60655;52.182;4.474;2023-03-16T00:23:36;101718.38;;;7.66;64.77
72612;BME280;60655;52.182;4.474;2023-03-16T00:25:37;101719.44;;;7.79;66.28
72612;BME280;60655;52.182;4.474;2023-03-16T00:27:38;101711.91;;;7.68;65.31
72612;BME280;60655;52.182;4.474;2023-03-16T00:29:46;101704.28;;;7.73;66.38
72612;BME280;60655;52.182;4.474;2023-03-16T00:31:48;101696.94;;;7.53;64.88
72612;BME280;60655;52.182;4.474;2023-03-16T00:33:48;101698.25;;;7.57;65.96
72612;BME280;60655;52.182;4.474;2023-03-16T00:35:50;101697.50;;;7.71;66.16
72612;BME280;60655;52.182;4.474;2023-03-16T00:38:01;101693.69;;;7.73;66.05
72612;BME280;60655;52.182;4.474;2023-03-16T00:40:05;101696.63;;;7.78;66.82
72612;BME280;60655;52.182;4.474;2023-03-16T00:42:09;101693.22;;;7.93;66.42
72612;BME280;60655;52.182;4.474;2023-03-16T00:44:10;101687.78;;;7.86;65.45
72612;BME280;60655;52.182;4.474;2023-03-16T00:46:15;101692.44;;;7.84;66.25
72612;BME280;60655;52.182;4.474;2023-03-16T00:48:17;101688.50;;;7.80;66.47
72612;BME280;60655;52.182;4.474;2023-03-16T00:50:18;101691.41;;;7.70;66.05
72612;BME280;60655;52.182;4.474;2023-03-16T00:52:21;101687.50;;;7.81;67.42
72612;BME280;60655;52.182;4.474;2023-03-16T00:54:23;101677.34;;;7.93;67.10
72612;BME280;60655;52.182;4.474;2023-03-16T00:56:24;101670.50;;;7.98;67.04
72612;BME280;60655;52.182;4.474;2023-03-16T00:58:24;101671.75;;;7.65;65.71
72612;BME280;60655;52.182;4.474;2023-03-16T01:00:25;101669.41;;;7.70;67.64
72612;BME280;60655;52.182;4.474;2023-03-16T01:02:27;101656.72;;;7.65;68.08
72612;BME280;60655;52.182;4.474;2023-03-16T01:04:28;101665.34;;;7.82;67.72
72612;BME280;60655;52.182;4.474;2023-03-16T01:06:29;101666.81;;;7.85;68.23
72612;BME280;60655;52.182;4.474;2023-03-16T01:08:31;101668.56;;;7.92;68.10
72612;BME280;60655;52.182;4.474;2023-03-16T01:10:34;101650.47;;;7.81;68.02
72612;BME280;60655;52.182;4.474;2023-03-16T01:12:35;101651.28;;;7.82;67.46
72612;BME280;60655;52.182;4.474;2023-03-16T01:14:37;101650.22;;;7.76;67.58
72612;BME280;60655;52.182;4.474;2023-03-16T01:16:38;101647.13;;;7.87;68.80
72612;BME280;60655;52.182;4.474;2023-03-16T01:18:39;101651.94;;;7.84;66.62
72612;BME280;60655;52.182;4.474;2023-03-16T01:20:39;101651.19;;;7.75;66.93
72612;BME280;60655;52.182;4.474;2023-03-16T01:22:43;101642.56;;;7.58;67.59
72612;BME280;60655;52.182;4.474;2023-03-16T01:24:44;101635.75;;;7.64;67.81
72612;BME280;60655;52.182;4.474;2023-03-16T01:26:44;101640.84;;;7.65;68.70
72612;BME280;60655;52.182;4.474;2023-03-16T01:28:45;101638.34;;;7.72;68.42
72612;BME280;60655;52.182;4.474;2023-03-16T01:30:46;101625.09;;;7.72;68.67
72612;BME280;60655;52.182;4.474;2023-03-16T01:32:47;101630.13;;;7.82;69.42
72612;BME280;60655;52.182;4.474;2023-03-16T01:34:48;101630.13;;;7.82;69.38
72612;BME280;60655;52.182;4.474;2023-03-16T01:36:49;101625.94;;;7.72;70.46
72612;BME280;60655;52.182;4.474;2023-03-16T01:38:50;101627.09;;;7.70;70.88
72612;BME280;60655;52.182;4.474;2023-03-16T01:40:52;101630.94;;;7.67;70.55
72612;BME280;60655;52.182;4.474;2023-03-16T01:43:02;101620.81;;;7.71;71.34
72612;BME280;60655;52.182;4.474;2023-03-16T01:45:04;101621.50;;;7.88;70.58
72612;BME280;60655;52.182;4.474;2023-03-16T01:47:06;101580.63;;;7.75;70.91
72612;BME280;60655;52.182;4.474;2023-03-16T01:49:12;101615.72;;;7.84;70.74
72612;BME280;60655;52.182;4.474;2023-03-16T01:53:26;101603.31;;;7.85;70.58
72612;BME280;60655;52.182;4.474;2023-03-16T01:55:27;101604.88;;;7.79;71.10
72612;BME280;60655;52.182;4.474;2023-03-16T01:57:32;101597.56;;;7.81;70.80
72612;BME280;60655;52.182;4.474;2023-03-16T01:59:58;101597.78;;;7.79;70.40
72612;BME280;60655;52.182;4.474;2023-03-16T02:02:21;101587.69;;;7.98;71.51
72612;BME280;60655;52.182;4.474;2023-03-16T02:06:48;101590.16;;;7.99;70.74
72612;BME280;60655;52.182;4.474;2023-03-16T02:08:50;101582.09;;;7.93;71.16
72612;BME280;60655;52.182;4.474;2023-03-16T02:10:55;101584.91;;;7.76;70.64
72612;BME280;60655;52.182;4.474;2023-03-16T02:12:57;101573.97;;;7.79;71.00
72612;BME280;60655;52.182;4.474;2023-03-16T02:14:58;101580.53;;;7.84;70.98
72612;BME280;60655;52.182;4.474;2023-03-16T02:16:59;101569.75;;;7.85;71.07
72612;BME280;60655;52.182;4.474;2023-03-16T02:19:02;101570.88;;;7.76;70.47
72612;BME280;60655;52.182;4.474;2023-03-16T02:23:08;101565.22;;;7.79;72.04
72612;BME280;60655;52.182;4.474;2023-03-16T02:25:17;101567.75;;;7.87;71.83
72612;BME280;60655;52.182;4.474;2023-03-16T02:27:42;101558.94;;;7.95;72.09
72612;BME280;60655;52.182;4.474;2023-03-16T02:32:01;101562.16;;;7.67;71.62
72612;BME280;60655;52.182;4.474;2023-03-16T02:34:03;101566.56;;;7.75;72.12
72612;BME280;60655;52.182;4.474;2023-03-16T02:36:04;101559.81;;;7.72;71.81
72612;BME280;60655;52.182;4.474;2023-03-16T02:38:05;101560.28;;;7.76;70.65
72612;BME280;60655;52.182;4.474;2023-03-16T02:42:22;101555.59;;;7.63;72.28
72612;BME280;60655;52.182;4.474;2023-03-16T02:44:32;101560.16;;;7.69;71.65
72612;BME280;60655;52.182;4.474;2023-03-16T02:46:35;101555.53;;;7.71;72.70
72612;BME280;60655;52.182;4.474;2023-03-16T02:48:43;101551.78;;;7.80;73.10
72612;BME280;60655;52.182;4.474;2023-03-16T02:50:47;101556.00;;;7.75;72.92
72612;BME280;60655;52.182;4.474;2023-03-16T02:52:49;101545.31;;;7.83;72.95
72612;BME280;60655;52.182;4.474;2023-03-16T02:54:50;101556.34;;;7.87;71.86
72612;BME280;60655;52.182;4.474;2023-03-16T02:56:51;101550.34;;;7.78;71.87
72612;BME280;60655;52.182;4.474;2023-03-16T02:58:52;101546.06;;;7.77;73.71
72612;BME280;60655;52.182;4.474;2023-03-16T03:00:53;101553.53;;;7.73;72.41
72612;BME280;60655;52.182;4.474;2023-03-16T03:02:54;101542.41;;;7.78;73.39
72612;BME280;60655;52.182;4.474;2023-03-16T03:04:55;101544.88;;;7.79;73.84
72612;BME280;60655;52.182;4.474;2023-03-16T03:06:56;101539.13;;;7.76;74.05
72612;BME280;60655;52.182;4.474;2023-03-16T03:09:04;101534.19;;;7.73;73.79
72612;BME280;60655;52.182;4.474;2023-03-16T03:11:05;101537.56;;;7.82;74.48
72612;BME280;60655;52.182;4.474;2023-03-16T03:13:06;101533.22;;;7.51;75.07
72612;BME280;60655;52.182;4.474;2023-03-16T03:15:08;101521.69;;;7.67;74.50
72612;BME280;60655;52.182;4.474;2023-03-16T03:17:09;101524.97;;;7.84;74.82
72612;BME280;60655;52.182;4.474;2023-03-16T03:19:13;101525.03;;;7.61;73.87
72612;BME280;60655;52.182;4.474;2023-03-16T03:21:14;101528.97;;;7.65;74.44
72612;BME280;60655;52.182;4.474;2023-03-16T03:23:14;101529.72;;;7.73;74.20
72612;BME280;60655;52.182;4.474;2023-03-16T03:25:17;101516.56;;;7.65;75.20
72612;BME280;60655;52.182;4.474;2023-03-16T03:27:19;101512.31;;;7.79;75.70
72612;BME280;60655;52.182;4.474;2023-03-16T03:29:22;101501.91;;;7.92;75.53
72612;BME280;60655;52.182;4.474;2023-03-16T03:31:22;101509.50;;;7.95;74.98
72612;BME280;60655;52.182;4.474;2023-03-16T03:33:23;101501.81;;;7.86;75.42
72612;BME280;60655;52.182;4.474;2023-03-16T03:35:24;101500.53;;;7.96;75.68
72612;BME280;60655;52.182;4.474;2023-03-16T03:37:27;101499.34;;;7.84;76.14
72612;BME280;60655;52.182;4.474;2023-03-16T03:39:28;101500.91;;;7.78;75.79
72612;BME280;60655;52.182;4.474;2023-03-16T03:41:30;101501.00;;;7.85;75.80
72612;BME280;60655;52.182;4.474;2023-03-16T03:43:31;101497.97;;;7.88;76.53
72612;BME280;60655;52.182;4.474;2023-03-16T03:45:31;101491.22;;;7.71;75.02
72612;BME280;60655;52.182;4.474;2023-03-16T03:47:32;101497.13;;;7.58;76.65
72612;BME280;60655;52.182;4.474;2023-03-16T03:49:33;101489.59;;;7.85;76.82
72612;BME280;60655;52.182;4.474;2023-03-16T03:51:34;101486.75;;;7.86;76.73
72612;BME280;60655;52.182;4.474;2023-03-16T03:53:35;101480.03;;;7.98;76.73
72612;BME280;60655;52.182;4.474;2023-03-16T03:55:36;101479.19;;;7.83;75.79
72612;BME280;60655;52.182;4.474;2023-03-16T03:57:37;101483.47;;;7.84;75.98
72612;BME280;60655;52.182;4.474;2023-03-16T03:59:38;101488.72;;;7.55;76.36
72612;BME280;60655;52.182;4.474;2023-03-16T04:01:43;101483.63;;;7.53;77.22
72612;BME280;60655;52.182;4.474;2023-03-16T04:03:44;101489.66;;;7.62;76.45
72612;BME280;60655;52.182;4.474;2023-03-16T04:05:45;101487.66;;;7.64;76.26
72612;BME280;60655;52.182;4.474;2023-03-16T04:07:45;101488.50;;;7.79;76.18
72612;BME280;60655;52.182;4.474;2023-03-16T04:09:46;101455.47;;;7.45;76.59
72612;BME280;60655;52.182;4.474;2023-03-16T04:11:47;101481.84;;;7.83;75.78
72612;BME280;60655;52.182;4.474;2023-03-16T04:13:50;101484.75;;;7.88;75.52
72612;BME280;60655;52.182;4.474;2023-03-16T04:15:59;101455.03;;;7.71;76.21
72612;BME280;60655;52.182;4.474;2023-03-16T04:18:03;101472.44;;;7.80;76.62
72612;BME280;60655;52.182;4.474;2023-03-16T04:20:05;101478.13;;;7.77;76.18
72612;BME280;60655;52.182;4.474;2023-03-16T04:22:14;101475.00;;;7.74;76.30
72612;BME280;60655;52.182;4.474;2023-03-16T04:24:15;101479.44;;;7.59;76.90
72612;BME280;60655;52.182;4.474;2023-03-16T04:26:18;101472.34;;;7.59;76.97
72612;BME280;60655;52.182;4.474;2023-03-16T04:28:19;101470.44;;;7.68;76.72
72612;BME280;60655;52.182;4.474;2023-03-16T04:30:21;101474.72;;;7.69;76.87
72612;BME280;60655;52.182;4.474;2023-03-16T04:32:25;101457.13;;;7.76;76.79
72612;BME280;60655;52.182;4.474;2023-03-16T04:34:26;101467.59;;;7.55;76.23
72612;BME280;60655;52.182;4.474;2023-03-16T04:36:27;101458.75;;;7.62;76.72
72612;BME280;60655;52.182;4.474;2023-03-16T04:38:28;101453.66;;;7.61;77.11
72612;BME280;60655;52.182;4.474;2023-03-16T04:40:29;101446.81;;;7.66;77.70
72612;BME280;60655;52.182;4.474;2023-03-16T04:42:30;101443.19;;;7.67;76.60
72612;BME280;60655;52.182;4.474;2023-03-16T04:44:31;101442.31;;;7.52;76.71
72612;BME280;60655;52.182;4.474;2023-03-16T04:46:33;101448.66;;;7.66;77.32
72612;BME280;60655;52.182;4.474;2023-03-16T04:48:35;101445.91;;;7.74;77.74
72612;BME280;60655;52.182;4.474;2023-03-16T04:50:57;101441.44;;;7.60;77.88
72612;BME280;60655;52.182;4.474;2023-03-16T04:52:58;101446.25;;;7.41;77.51
72612;BME280;60655;52.182;4.474;2023-03-16T04:54:59;101455.19;;;7.40;78.02
72612;BME280;60655;52.182;4.474;2023-03-16T04:57:00;101441.31;;;7.53;78.69
72612;BME280;60655;52.182;4.474;2023-03-16T04:59:03;101436.69;;;7.40;78.10
72612;BME280;60655;52.182;4.474;2023-03-16T05:01:04;101433.41;;;7.68;79.14
72612;BME280;60655;52.182;4.474;2023-03-16T05:03:06;101434.22;;;7.83;78.05
72612;BME280;60655;52.182;4.474;2023-03-16T05:05:07;101430.75;;;7.38;78.65
72612;BME280;60655;52.182;4.474;2023-03-16T05:07:10;101424.47;;;7.39;79.28
72612;BME280;60655;52.182;4.474;2023-03-16T05:09:11;101419.53;;;7.36;80.07
72612;BME280;60655;52.182;4.474;2023-03-16T05:11:14;101415.00;;;7.60;79.99
72612;BME280;60655;52.182;4.474;2023-03-16T05:13:15;101411.16;;;7.62;80.38
72612;BME280;60655;52.182;4.474;2023-03-16T05:15:16;101408.44;;;7.41;79.56
72612;BME280;60655;52.182;4.474;2023-03-16T05:17:17;101409.16;;;7.64;80.11
72612;BME280;60655;52.182;4.474;2023-03-16T05:19:18;101400.41;;;7.49;79.54
72612;BME280;60655;52.182;4.474;2023-03-16T05:21:19;101404.88;;;7.49;80.00
72612;BME280;60655;52.182;4.474;2023-03-16T05:23:21;101389.28;;;7.39;80.31
72612;BME280;60655;52.182;4.474;2023-03-16T05:25:22;101410.44;;;7.39;81.44
72612;BME280;60655;52.182;4.474;2023-03-16T05:27:23;101397.47;;;7.29;80.30
72612;BME280;60655;52.182;4.474;2023-03-16T05:29:24;101386.22;;;6.98;80.81
72612;BME280;60655;52.182;4.474;2023-03-16T05:31:26;101395.81;;;7.28;81.18
72612;BME280;60655;52.182;4.474;2023-03-16T05:33:27;101406.03;;;7.17;80.50
72612;BME280;60655;52.182;4.474;2023-03-16T05:35:28;101390.28;;;6.86;82.01
72612;BME280;60655;52.182;4.474;2023-03-16T05:37:30;101405.91;;;7.10;81.61
72612;BME280;60655;52.182;4.474;2023-03-16T05:39:31;101406.50;;;6.97;81.90
72612;BME280;60655;52.182;4.474;2023-03-16T05:41:34;101385.94;;;6.93;82.49
72612;BME280;60655;52.182;4.474;2023-03-16T05:43:34;101413.03;;;7.09;82.41
72612;BME280;60655;52.182;4.474;2023-03-16T05:45:35;101411.91;;;7.04;82.27
72612;BME280;60655;52.182;4.474;2023-03-16T05:47:36;101409.09;;;7.05;82.91
72612;BME280;60655;52.182;4.474;2023-03-16T05:49:37;101398.03;;;6.87;83.32
72612;BME280;60655;52.182;4.474;2023-03-16T05:51:39;101411.88;;;6.89;83.14
72612;BME280;60655;52.182;4.474;2023-03-16T05:53:40;101408.25;;;6.90;82.50
72612;BME280;60655;52.182;4.474;2023-03-16T05:55:41;101405.66;;;6.82;83.14
72612;BME280;60655;52.182;4.474;2023-03-16T05:57:42;101380.97;;;6.75;83.15
72612;BME280;60655;52.182;4.474;2023-03-16T05:59:43;101407.66;;;6.80;83.80
72612;BME280;60655;52.182;4.474;2023-03-16T06:01:44;101410.16;;;6.96;83.61
72612;BME280;60655;52.182;4.474;2023-03-16T06:03:47;101409.91;;;7.06;83.13
72612;BME280;60655;52.182;4.474;2023-03-16T06:05:48;101397.88;;;6.89;83.28
72612;BME280;60655;52.182;4.474;2023-03-16T06:07:50;101400.75;;;7.17;83.67
72612;BME280;60655;52.182;4.474;2023-03-16T06:09:51;101391.25;;;7.07;82.78
72612;BME280;60655;52.182;4.474;2023-03-16T06:11:51;101398.94;;;6.94;84.19
72612;BME280;60655;52.182;4.474;2023-03-16T06:13:53;101397.94;;;6.95;84.44
72612;BME280;60655;52.182;4.474;2023-03-16T06:15:57;101377.63;;;6.96;83.17
72612;BME280;60655;52.182;4.474;2023-03-16T06:17:58;101394.41;;;7.03;84.14
72612;BME280;60655;52.182;4.474;2023-03-16T06:19:59;101394.78;;;7.00;84.81
72612;BME280;60655;52.182;4.474;2023-03-16T06:21:59;101394.19;;;7.13;84.25
72612;BME280;60655;52.182;4.474;2023-03-16T06:24:00;101362.63;;;6.96;83.72
72612;BME280;60655;52.182;4.474;2023-03-16T06:26:02;101389.00;;;6.82;83.43
72612;BME280;60655;52.182;4.474;2023-03-16T06:28:22;101377.28;;;6.99;82.99
72612;BME280;60655;52.182;4.474;2023-03-16T06:30:23;101374.16;;;7.18;84.06
72612;BME280;60655;52.182;4.474;2023-03-16T06:32:24;101378.84;;;7.08;83.65
72612;BME280;60655;52.182;4.474;2023-03-16T06:34:25;101368.88;;;7.18;83.72
72612;BME280;60655;52.182;4.474;2023-03-16T06:36:46;101368.94;;;7.10;83.55
72612;BME280;60655;52.182;4.474;2023-03-16T06:38:47;101367.00;;;7.04;83.18
72612;BME280;60655;52.182;4.474;2023-03-16T06:40:51;101362.00;;;7.09;83.71
72612;BME280;60655;52.182;4.474;2023-03-16T06:42:52;101366.00;;;6.90;83.84
72612;BME280;60655;52.182;4.474;2023-03-16T06:44:53;101370.75;;;7.09;84.82
72612;BME280;60655;52.182;4.474;2023-03-16T06:46:54;101361.28;;;7.15;82.84
72612;BME280;60655;52.182;4.474;2023-03-16T06:48:54;101361.78;;;6.96;83.68
72612;BME280;60655;52.182;4.474;2023-03-16T06:50:56;101368.25;;;6.93;84.29
72612;BME280;60655;52.182;4.474;2023-03-16T06:52:57;101361.41;;;6.84;83.63
72612;BME280;60655;52.182;4.474;2023-03-16T06:54:57;101370.81;;;6.87;84.22
72612;BME280;60655;52.182;4.474;2023-03-16T06:56:58;101360.72;;;7.05;83.50
72612;BME280;60655;52.182;4.474;2023-03-16T06:58:59;101361.72;;;7.04;82.80
72612;BME280;60655;52.182;4.474;2023-03-16T07:01:04;101353.69;;;6.97;82.36
72612;BME280;60655;52.182;4.474;2023-03-16T07:03:05;101355.88;;;6.94;83.47
72612;BME280;60655;52.182;4.474;2023-03-16T07:05:06;101352.50;;;7.00;83.20
72612;BME280;60655;52.182;4.474;2023-03-16T07:07:08;101356.50;;;6.96;83.64
72612;BME280;60655;52.182;4.474;2023-03-16T07:09:09;101344.13;;;6.82;83.16
72612;BME280;60655;52.182;4.474;2023-03-16T07:11:12;101352.50;;;7.00;82.81
72612;BME280;60655;52.182;4.474;2023-03-16T07:13:14;101352.97;;;6.89;83.09
72612;BME280;60655;52.182;4.474;2023-03-16T07:15:15;101350.44;;;7.10;83.11
72612;BME280;60655;52.182;4.474;2023-03-16T07:17:16;101348.72;;;7.17;82.66
72612;BME280;60655;52.182;4.474;2023-03-16T07:19:17;101347.69;;;7.03;83.14
72612;BME280;60655;52.182;4.474;2023-03-16T07:21:19;101354.72;;;7.11;82.42
72612;BME280;60655;52.182;4.474;2023-03-16T07:23:20;101331.41;;;7.15;83.06
72612;BME280;60655;52.182;4.474;2023-03-16T07:25:21;101342.91;;;7.22;82.31
72612;BME280;60655;52.182;4.474;2023-03-16T07:27:22;101347.38;;;7.21;82.62
72612;BME280;60655;52.182;4.474;2023-03-16T07:29:23;101353.81;;;7.33;81.57
72612;BME280;60655;52.182;4.474;2023-03-16T07:31:24;101348.34;;;7.35;81.92
72612;BME280;60655;52.182;4.474;2023-03-16T07:33:25;101342.97;;;7.28;81.73
72612;BME280;60655;52.182;4.474;2023-03-16T07:35:25;101354.94;;;7.39;81.44
72612;BME280;60655;52.182;4.474;2023-03-16T07:37:26;101361.00;;;7.25;80.86
72612;BME280;60655;52.182;4.474;2023-03-16T07:39:27;101354.19;;;7.30;80.77
72612;BME280;60655;52.182;4.474;2023-03-16T07:41:28;101359.38;;;7.38;81.61
72612;BME280;60655;52.182;4.474;2023-03-16T07:43:29;101357.81;;;7.59;81.19
72612;BME280;60655;52.182;4.474;2023-03-16T07:45:30;101358.38;;;7.54;79.93
72612;BME280;60655;52.182;4.474;2023-03-16T07:47:31;101357.00;;;7.73;79.02
72612;BME280;60655;52.182;4.474;2023-03-16T07:49:33;101354.44;;;7.79;79.53
72612;BME280;60655;52.182;4.474;2023-03-16T07:51:35;101355.72;;;7.54;79.62
72612;BME280;60655;52.182;4.474;2023-03-16T07:53:36;101362.28;;;7.73;78.08
72612;BME280;60655;52.182;4.474;2023-03-16T07:55:37;101353.91;;;7.69;78.68
72612;BME280;60655;52.182;4.474;2023-03-16T07:57:39;101366.31;;;7.54;78.79
72612;BME280;60655;52.182;4.474;2023-03-16T07:59:42;101354.72;;;7.70;79.01
72612;BME280;60655;52.182;4.474;2023-03-16T08:01:44;101368.22;;;7.75;78.93
72612;BME280;60655;52.182;4.474;2023-03-16T08:03:45;101356.78;;;7.89;79.03
72612;BME280;60655;52.182;4.474;2023-03-16T08:05:46;101354.88;;;7.83;77.36
72612;BME280;60655;52.182;4.474;2023-03-16T08:07:47;101344.06;;;7.78;78.30
72612;BME280;60655;52.182;4.474;2023-03-16T08:09:48;101360.84;;;7.70;76.85
72612;BME280;60655;52.182;4.474;2023-03-16T08:11:51;101359.91;;;7.78;76.08
72612;BME280;60655;52.182;4.474;2023-03-16T08:13:52;101350.78;;;7.80;76.57
72612;BME280;60655;52.182;4.474;2023-03-16T08:15:57;101357.41;;;7.91;76.95
72612;BME280;60655;52.182;4.474;2023-03-16T08:17:58;101368.38;;;7.88;76.17
72612;BME280;60655;52.182;4.474;2023-03-16T08:20:05;101356.50;;;7.84;75.67
72612;BME280;60655;52.182;4.474;2023-03-16T08:22:10;101352.84;;;8.00;75.79
72612;BME280;60655;52.182;4.474;2023-03-16T08:24:12;101350.41;;;8.20;75.43
72612;BME280;60655;52.182;4.474;2023-03-16T08:26:12;101356.69;;;7.97;74.64
72612;BME280;60655;52.182;4.474;2023-03-16T08:28:14;101358.88;;;7.94;75.42
72612;BME280;60655;52.182;4.474;2023-03-16T08:30:16;101352.09;;;8.06;75.41
72612;BME280;60655;52.182;4.474;2023-03-16T08:32:17;101340.16;;;7.95;75.72
72612;BME280;60655;52.182;4.474;2023-03-16T08:34:19;101341.91;;;8.24;74.88
72612;BME280;60655;52.182;4.474;2023-03-16T08:36:20;101340.63;;;7.99;74.93
72612;BME280;60655;52.182;4.474;2023-03-16T08:38:21;101336.88;;;8.08;75.32
72612;BME280;60655;52.182;4.474;2023-03-16T08:40:22;101340.91;;;8.25;74.91
72612;BME280;60655;52.182;4.474;2023-03-16T08:42:25;101328.09;;;8.07;73.78
72612;BME280;60655;52.182;4.474;2023-03-16T08:44:26;101329.34;;;8.11;73.84
72612;BME280;60655;52.182;4.474;2023-03-16T08:46:27;101315.38;;;8.18;74.11
72612;BME280;60655;52.182;4.474;2023-03-16T08:48:28;101337.34;;;8.33;73.39
72612;BME280;60655;52.182;4.474;2023-03-16T08:50:29;101325.88;;;8.47;73.55
72612;BME280;60655;52.182;4.474;2023-03-16T08:52:30;101314.00;;;8.22;73.41
72612;BME280;60655;52.182;4.474;2023-03-16T08:54:31;101323.53;;;8.37;73.78
72612;BME280;60655;52.182;4.474;2023-03-16T08:56:33;101322.78;;;8.43;73.72
72612;BME280;60655;52.182;4.474;2023-03-16T08:58:35;101312.81;;;8.45;71.24
72612;BME280;60655;52.182;4.474;2023-03-16T09:00:37;101321.50;;;8.61;72.47
72612;BME280;60655;52.182;4.474;2023-03-16T09:02:40;101326.28;;;8.72;72.32
72612;BME280;60655;52.182;4.474;2023-03-16T09:04:41;101313.38;;;8.62;71.37
72612;BME280;60655;52.182;4.474;2023-03-16T09:06:42;101318.75;;;8.75;72.88
72612;BME280;60655;52.182;4.474;2023-03-16T09:08:43;101311.50;;;8.56;70.72
72612;BME280;60655;52.182;4.474;2023-03-16T09:10:45;101314.06;;;8.50;70.63
72612;BME280;60655;52.182;4.474;2023-03-16T09:12:46;101306.25;;;8.63;70.03
72612;BME280;60655;52.182;4.474;2023-03-16T09:14:47;101283.25;;;8.70;70.73
72612;BME280;60655;52.182;4.474;2023-03-16T09:16:48;101310.38;;;8.72;69.98
72612;BME280;60655;52.182;4.474;2023-03-16T09:18:52;101303.94;;;8.81;70.22
72612;BME280;60655;52.182;4.474;2023-03-16T09:20:58;101305.63;;;8.89;69.31
72612;BME280;60655;52.182;4.474;2023-03-16T09:22:59;101316.47;;;8.94;69.49
72612;BME280;60655;52.182;4.474;2023-03-16T09:25:01;101296.28;;;8.93;68.28
72612;BME280;60655;52.182;4.474;2023-03-16T09:27:02;101309.75;;;8.98;68.50
72612;BME280;60655;52.182;4.474;2023-03-16T09:29:03;101310.16;;;9.29;69.05
72612;BME280;60655;52.182;4.474;2023-03-16T09:31:07;101309.31;;;9.29;67.34
72612;BME280;60655;52.182;4.474;2023-03-16T09:33:08;101299.53;;;9.23;66.38
72612;BME280;60655;52.182;4.474;2023-03-16T09:35:09;101296.44;;;9.19;66.23
72612;BME280;60655;52.182;4.474;2023-03-16T09:37:11;101309.66;;;9.12;67.60
72612;BME280;60655;52.182;4.474;2023-03-16T09:39:12;101306.53;;;9.37;66.27
72612;BME280;60655;52.182;4.474;2023-03-16T09:44:14;101295.16;;;9.56;64.42
72612;BME280;60655;52.182;4.474;2023-03-16T09:46:42;101290.97;;;9.75;66.15
72612;BME280;60655;52.182;4.474;2023-03-16T09:48:45;101294.78;;;9.59;63.42
72612;BME280;60655;52.182;4.474;2023-03-16T09:50:47;101284.16;;;9.59;64.24
72612;BME280;60655;52.182;4.474;2023-03-16T09:53:16;101296.50;;;9.87;65.15
72612;BME280;60655;52.182;4.474;2023-03-16T09:55:30;101301.78;;;9.73;65.05
72612;BME280;60655;52.182;4.474;2023-03-16T09:57:34;101285.69;;;9.88;64.55
72612;BME280;60655;52.182;4.474;2023-03-16T09:59:36;101298.63;;;10.18;62.03
72612;BME280;60655;52.182;4.474;2023-03-16T10:06:22;101283.88;;;9.95;62.97
72612;BME280;60655;52.182;4.474;2023-03-16T10:08:42;101289.25;;;10.22;63.19
72612;BME280;60655;52.182;4.474;2023-03-16T10:12:58;101291.22;;;9.93;63.40
72612;BME280;60655;52.182;4.474;2023-03-16T10:15:13;101289.47;;;10.27;64.19
72612;BME280;60655;52.182;4.474;2023-03-16T10:19:38;101289.59;;;9.99;62.77
72612;BME280;60655;52.182;4.474;2023-03-16T10:21:41;101289.59;;;9.99;63.52
72612;BME280;60655;52.182;4.474;2023-03-16T10:23:44;101290.66;;;10.04;62.62
72612;BME280;60655;52.182;4.474;2023-03-16T10:25:48;101281.47;;;10.07;63.09
72612;BME280;60655;52.182;4.474;2023-03-16T10:27:50;101291.34;;;10.33;62.78
72612;BME280;60655;52.182;4.474;2023-03-16T10:29:50;101280.91;;;10.25;62.45
72612;BME280;60655;52.182;4.474;2023-03-16T10:31:54;101283.09;;;10.14;62.20
72612;BME280;60655;52.182;4.474;2023-03-16T10:34:04;101267.16;;;10.14;62.67
72612;BME280;60655;52.182;4.474;2023-03-16T10:36:23;101267.03;;;10.36;61.64
72612;BME280;60655;52.182;4.474;2023-03-16T10:38:56;101262.94;;;10.60;61.93
72612;BME280;60655;52.182;4.474;2023-03-16T10:40:59;101249.25;;;10.36;62.16
72612;BME280;60655;52.182;4.474;2023-03-16T10:43:13;101244.94;;;10.42;62.01
72612;BME280;60655;52.182;4.474;2023-03-16T10:45:30;101255.97;;;10.26;61.14
72612;BME280;60655;52.182;4.474;2023-03-16T10:47:32;101246.56;;;10.69;60.92
72612;BME280;60655;52.182;4.474;2023-03-16T10:49:44;101245.97;;;10.61;61.16
72612;BME280;60655;52.182;4.474;2023-03-16T10:51:54;101250.66;;;10.65;62.13
72612;BME280;60655;52.182;4.474;2023-03-16T10:54:07;101249.59;;;10.79;61.66
72612;BME280;60655;52.182;4.474;2023-03-16T10:56:18;101241.44;;;10.74;60.42
72612;BME280;60655;52.182;4.474;2023-03-16T10:58:25;101245.16;;;10.47;60.68
72612;BME280;60655;52.182;4.474;2023-03-16T11:00:35;101229.41;;;10.65;60.61
72612;BME280;60655;52.182;4.474;2023-03-16T11:02:36;101227.38;;;10.54;60.67
72612;BME280;60655;52.182;4.474;2023-03-16T11:04:38;101237.19;;;10.67;59.78
72612;BME280;60655;52.182;4.474;2023-03-16T11:06:48;101239.63;;;10.55;60.56
72612;BME280;60655;52.182;4.474;2023-03-16T11:08:50;101229.81;;;10.49;61.08
72612;BME280;60655;52.182;4.474;2023-03-16T11:10:57;101238.19;;;10.53;60.05
72612;BME280;60655;52.182;4.474;2023-03-16T11:13:32;101234.72;;;10.65;60.88
72612;BME280;60655;52.182;4.474;2023-03-16T11:15:47;101220.84;;;10.63;59.47